createdAt,value
2023-04-02T00:01:03.949Z,100.00
2023-04-02T00:03:56.408Z,100.00
2023-04-02T00:06:33.795Z,100.00
2023-04-02T00:09:01.702Z,100.00
2023-04-02T00:11:30.117Z,100.00
2023-04-02T00:14:00.613Z,100.00
2023-04-02T00:16:28.005Z,100.00
2023-04-02T00:18:57.754Z,100.00
2023-04-02T00:21:25.689Z,100.00
2023-04-02T00:23:56.146Z,100.00
2023-04-02T00:26:24.591Z,100.00
2023-04-02T00:28:51.623Z,100.00
2023-04-02T00:31:18.947Z,100.00
2023-04-02T00:33:45.844Z,100.00
2023-04-02T00:36:12.652Z,100.00
2023-04-02T00:38:39.957Z,100.00
2023-04-02T00:41:07.900Z,100.00
2023-04-02T00:43:35.798Z,100.00
2023-04-02T00:46:03.056Z,100.00
2023-04-02T00:48:39.795Z,100.00
2023-04-02T00:51:12.529Z,100.00
2023-04-02T00:53:39.170Z,100.00
2023-04-02T00:56:12.829Z,100.00
2023-04-02T00:58:40.640Z,100.00
2023-04-02T01:01:15.189Z,100.00
2023-04-02T01:03:41.772Z,100.00
2023-04-02T01:06:09.764Z,100.00
2023-04-02T01:08:43.331Z,100.00
2023-04-02T01:11:18.028Z,100.00
2023-04-02T01:13:49.907Z,100.00
2023-04-02T01:16:20.901Z,100.00
2023-04-02T01:18:54.568Z,100.00
2023-04-02T01:21:35.616Z,100.00
2023-04-02T01:24:03.375Z,100.00
2023-04-02T01:26:36.127Z,100.00
2023-04-02T01:29:06.897Z,100.00
2023-04-02T01:31:34.371Z,100.00
2023-04-02T01:34:08.529Z,100.00
2023-04-02T01:36:39.493Z,100.00
2023-04-02T01:39:10.415Z,100.00
2023-04-02T01:41:40.394Z,100.00
2023-04-02T01:44:09.606Z,100.00
2023-04-02T01:46:38.371Z,100.00
2023-04-02T01:49:11.740Z,100.00
2023-04-02T01:51:41.578Z,100.00
2023-04-02T01:54:09.730Z,100.00
2023-04-02T01:56:36.539Z,100.00
2023-04-02T01:59:03.634Z,100.00
2023-04-02T02:01:36.310Z,100.00
2023-04-02T02:04:03.038Z,100.00
2023-04-02T02:06:29.730Z,100.00
2023-04-02T02:08:58.862Z,100.00
2023-04-02T02:11:27.406Z,100.00
2023-04-02T02:13:55.687Z,100.00
2023-04-02T02:16:22.903Z,100.00
2023-04-02T02:18:52.189Z,100.00
2023-04-02T02:21:23.937Z,100.00
2023-04-02T02:23:50.437Z,100.00
2023-04-02T02:26:17.347Z,100.00
2023-04-02T02:28:47.087Z,100.00
2023-04-02T02:31:17.049Z,100.00
2023-04-02T02:33:46.887Z,100.00
2023-04-02T02:36:17.530Z,100.00
2023-04-02T02:38:47.801Z,100.00
2023-04-02T02:41:26.457Z,100.00
2023-04-02T02:44:00.576Z,100.00
2023-04-02T02:46:29.154Z,100.00
2023-04-02T02:48:57.938Z,100.00
2023-04-02T02:51:28.390Z,100.00
2023-04-02T02:54:00.154Z,100.00
2023-04-02T02:56:27.943Z,100.00
2023-04-02T02:58:54.597Z,100.00
2023-04-02T03:01:27.976Z,100.00
2023-04-02T03:03:54.922Z,100.00
2023-04-02T03:06:23.171Z,100.00
2023-04-02T03:09:02.505Z,100.00
2023-04-02T03:11:35.993Z,100.00
2023-04-02T03:14:11.636Z,100.00
2023-04-02T03:16:42.950Z,100.00
2023-04-02T03:19:16.696Z,100.00
2023-04-02T03:21:44.895Z,100.00
2023-04-02T03:24:17.197Z,100.00
2023-04-02T03:26:46.187Z,100.00
2023-04-02T03:29:16.286Z,100.00
2023-04-02T03:31:48.340Z,100.00
2023-04-02T03:34:18.403Z,100.00
2023-04-02T03:36:50.025Z,100.00
2023-04-02T03:39:20.604Z,100.00
2023-04-02T03:41:51.933Z,100.00
2023-04-02T03:44:23.774Z,100.00
2023-04-02T03:46:53.342Z,100.00
2023-04-02T03:49:24.828Z,100.00
2023-04-02T03:51:55.232Z,100.00
2023-04-02T03:54:23.338Z,100.00
2023-04-02T03:56:52.173Z,100.00
2023-04-02T03:59:27.075Z,100.00
2023-04-02T04:01:56.981Z,100.00
2023-04-02T04:04:27.525Z,100.00
2023-04-02T04:06:56.224Z,100.00
2023-04-02T04:09:26.592Z,100.00
2023-04-02T04:11:55.222Z,100.00
2023-04-02T04:14:28.626Z,100.00
2023-04-02T04:16:59.614Z,100.00
2023-04-02T04:19:30.095Z,100.00
2023-04-02T04:22:08.581Z,100.00
2023-04-02T04:24:36.686Z,100.00
2023-04-02T04:27:07.688Z,100.00
2023-04-02T04:29:41.360Z,100.00
2023-04-02T04:32:15.088Z,100.00
2023-04-02T04:34:45.064Z,100.00
2023-04-02T04:37:18.520Z,100.00
2023-04-02T04:39:49.982Z,100.00
2023-04-02T04:42:20.242Z,100.00
2023-04-02T04:44:51.627Z,100.00
2023-04-02T04:47:20.819Z,100.00
2023-04-02T04:49:52.183Z,100.00
2023-04-02T04:52:24.218Z,100.00
2023-04-02T04:54:52.630Z,100.00
2023-04-02T04:57:29.739Z,100.00
2023-04-02T04:59:58.727Z,100.00
2023-04-02T05:02:29.525Z,100.00
2023-04-02T05:04:57.022Z,100.00
2023-04-02T05:07:27.868Z,100.00
2023-04-02T05:09:58.969Z,100.00
2023-04-02T05:12:30.416Z,100.00
2023-04-02T05:15:00.347Z,100.00
2023-04-02T05:17:29.504Z,100.00
2023-04-02T05:19:59.577Z,100.00
2023-04-02T05:22:29.896Z,100.00
2023-04-02T05:25:01.851Z,100.00
2023-04-02T05:27:33.717Z,100.00
2023-04-02T05:30:07.115Z,100.00
2023-04-02T05:32:35.988Z,100.00
2023-04-02T05:35:03.539Z,100.00
2023-04-02T05:37:31.060Z,100.00
2023-04-02T05:40:05.004Z,100.00
2023-04-02T05:42:35.533Z,100.00
2023-04-02T05:45:15.074Z,100.00
2023-04-02T05:47:43.664Z,100.00
2023-04-02T05:50:22.714Z,100.00
2023-04-02T05:52:52.183Z,100.00
2023-04-02T05:55:33.061Z,100.00
2023-04-02T05:58:29.380Z,100.00
2023-04-02T06:00:54.098Z,100.00
2023-04-02T06:03:25.092Z,100.00
2023-04-02T06:05:53.980Z,100.00
2023-04-02T06:08:22.492Z,100.00
2023-04-02T06:10:52.800Z,100.00
2023-04-02T06:13:21.259Z,100.00
2023-04-02T06:15:48.163Z,100.00
2023-04-02T06:18:27.458Z,100.00
2023-04-02T06:20:54.942Z,100.00
2023-04-02T06:23:24.881Z,100.00
2023-04-02T06:26:00.226Z,100.00
2023-04-02T06:28:33.083Z,100.00
2023-04-02T06:31:02.997Z,100.00
2023-04-02T06:33:34.914Z,100.00
2023-04-02T06:36:01.654Z,100.00
2023-04-02T06:38:31.314Z,100.00
2023-04-02T06:41:00.120Z,100.00
2023-04-02T06:43:58.239Z,100.00
2023-04-02T06:46:36.335Z,100.00
2023-04-02T06:49:13.982Z,100.00
2023-04-02T06:51:42.188Z,100.00
2023-04-02T06:54:13.677Z,100.00
2023-04-02T06:56:42.949Z,100.00
2023-04-02T06:59:12.224Z,100.00
2023-04-02T07:01:41.910Z,100.00
2023-04-02T07:04:09.655Z,100.00
2023-04-02T07:06:40.426Z,100.00
2023-04-02T07:09:07.242Z,100.00
2023-04-02T07:11:37.322Z,100.00
2023-04-02T07:14:07.026Z,100.00
2023-04-02T07:16:34.393Z,100.00
2023-04-02T07:19:01.053Z,100.00
2023-04-02T07:21:31.140Z,100.00
2023-04-02T07:23:57.882Z,100.00
2023-04-02T07:26:27.589Z,100.00
2023-04-02T07:28:54.183Z,100.00
2023-04-02T07:31:22.869Z,100.00
2023-04-02T07:33:49.806Z,100.00
2023-04-02T07:36:17.655Z,100.00
2023-04-02T07:38:44.403Z,100.00
2023-04-02T07:41:11.183Z,100.00
2023-04-02T07:43:38.121Z,100.00
2023-04-02T07:46:05.203Z,100.00
2023-04-02T07:48:36.479Z,100.00
2023-04-02T07:51:03.191Z,100.00
2023-04-02T07:53:30.862Z,100.00
2023-04-02T07:55:58.021Z,100.00
2023-04-02T07:58:24.616Z,100.00
2023-04-02T08:00:51.280Z,100.00
2023-04-02T08:03:17.988Z,100.00
2023-04-02T08:05:51.997Z,100.00
2023-04-02T08:08:24.904Z,100.00
2023-04-02T08:10:52.397Z,100.00
2023-04-02T08:13:19.054Z,100.00
2023-04-02T08:15:48.115Z,100.00
2023-04-02T08:18:14.809Z,100.00
2023-04-02T08:20:41.434Z,100.00
2023-04-02T08:23:13.989Z,100.00
2023-04-02T08:25:40.720Z,100.00
2023-04-02T08:28:09.786Z,100.00
2023-04-02T08:30:36.708Z,100.00
2023-04-02T08:33:03.652Z,100.00
2023-04-02T08:35:33.321Z,100.00
2023-04-02T08:38:07.474Z,100.00
2023-04-02T08:40:37.167Z,100.00
2023-04-02T08:43:13.150Z,100.00
2023-04-02T08:45:51.492Z,100.00
2023-04-02T08:48:20.999Z,100.00
2023-04-02T08:50:47.924Z,100.00
2023-04-02T08:53:20.624Z,100.00
2023-04-02T08:55:53.998Z,100.00
2023-04-02T08:58:25.579Z,100.00
2023-04-02T09:00:53.832Z,100.00
2023-04-02T09:03:26.126Z,100.00
2023-04-02T09:05:53.268Z,100.00
2023-04-02T09:08:22.398Z,100.00
2023-04-02T09:10:51.767Z,100.00
2023-04-02T09:13:22.840Z,100.00
2023-04-02T09:15:50.095Z,100.00
2023-04-02T09:18:17.694Z,100.00
2023-04-02T09:20:44.965Z,100.00
2023-04-02T09:23:16.009Z,100.00
2023-04-02T09:25:48.522Z,100.00
2023-04-02T09:28:22.064Z,100.00
2023-04-02T09:30:59.081Z,100.00
2023-04-02T09:33:40.179Z,100.00
2023-04-02T09:36:16.937Z,100.00
2023-04-02T09:38:56.728Z,100.00
2023-04-02T09:41:25.825Z,100.00
2023-04-02T09:44:11.084Z,100.00
2023-04-02T09:46:37.611Z,100.00
2023-04-02T09:49:04.073Z,100.00
2023-04-02T09:51:31.660Z,100.00
2023-04-02T09:54:06.972Z,100.00
2023-04-02T09:56:34.648Z,100.00
2023-04-02T09:59:06.591Z,100.00
2023-04-02T10:01:34.813Z,100.00
2023-04-02T10:04:02.835Z,100.00
2023-04-02T10:06:29.830Z,100.00
2023-04-02T10:08:56.880Z,100.00
2023-04-02T10:11:30.912Z,100.00
2023-04-02T10:14:07.172Z,100.00
2023-04-02T10:16:36.821Z,100.00
2023-04-02T10:19:06.443Z,100.00
2023-04-02T10:21:35.131Z,100.00
2023-04-02T10:24:01.785Z,100.00
2023-04-02T10:26:36.074Z,100.00
2023-04-02T10:29:17.404Z,100.00
2023-04-02T10:31:51.334Z,100.00
2023-04-02T10:34:22.885Z,100.00
2023-04-02T10:36:50.872Z,100.00
2023-04-02T10:39:21.506Z,100.00
2023-04-02T10:41:52.812Z,100.00
2023-04-02T10:44:29.009Z,100.00
2023-04-02T10:47:08.296Z,100.00
2023-04-02T10:49:40.972Z,100.00
2023-04-02T10:52:08.942Z,100.00
2023-04-02T10:54:47.166Z,100.00
2023-04-02T10:57:27.360Z,100.00
2023-04-02T10:59:55.696Z,100.00
2023-04-02T11:02:30.833Z,100.00
2023-04-02T11:04:59.847Z,100.00
2023-04-02T11:07:30.366Z,100.00
2023-04-02T11:09:57.463Z,100.00
2023-04-02T11:12:26.579Z,100.00
2023-04-02T11:14:54.052Z,100.00
2023-04-02T11:17:20.580Z,100.00
2023-04-02T11:19:48.365Z,100.00
2023-04-02T11:22:16.114Z,100.00
2023-04-02T11:24:43.941Z,100.00
2023-04-02T11:27:16.149Z,100.00
2023-04-02T11:29:44.443Z,100.00
2023-04-02T11:32:28.950Z,100.00
2023-04-02T11:35:16.194Z,100.00
2023-04-02T11:37:45.079Z,100.00
2023-04-02T11:40:26.549Z,100.00
2023-04-02T11:42:53.029Z,100.00
2023-04-02T11:45:52.608Z,100.00
2023-04-02T11:48:27.637Z,100.00
2023-04-02T11:50:54.218Z,100.00
2023-04-02T11:53:24.398Z,100.00
2023-04-02T11:56:06.813Z,100.00
2023-04-02T11:58:40.488Z,100.00
2023-04-02T12:01:22.600Z,100.00
2023-04-02T12:04:01.189Z,100.00
2023-04-02T12:06:33.753Z,100.00
2023-04-02T12:09:05.698Z,100.00
2023-04-02T12:11:33.424Z,100.00
2023-04-02T12:14:00.449Z,100.00
2023-04-02T12:16:27.016Z,100.00
2023-04-02T12:18:53.555Z,100.00
2023-04-02T12:21:21.559Z,100.00
2023-04-02T12:23:48.666Z,100.00
2023-04-02T12:26:27.430Z,100.00
2023-04-02T12:28:53.837Z,100.00
2023-04-02T12:31:22.503Z,100.00
2023-04-02T12:33:51.601Z,100.00
2023-04-02T12:36:19.643Z,100.00
2023-04-02T12:38:47.083Z,100.00
2023-04-02T12:41:20.700Z,100.00
2023-04-02T12:43:56.209Z,100.00
2023-04-02T12:46:22.719Z,100.00
2023-04-02T12:48:49.300Z,100.00
2023-04-02T12:51:17.534Z,100.00
2023-04-02T12:53:49.068Z,100.00
2023-04-02T12:56:18.932Z,100.00
2023-04-02T12:58:53.342Z,100.00
2023-04-02T13:01:21.953Z,100.00
2023-04-02T13:04:01.304Z,100.00
2023-04-02T13:06:27.884Z,100.00
2023-04-02T13:12:29.223Z,100.00
2023-04-02T13:15:03.769Z,100.00
2023-04-02T13:17:46.676Z,100.00
2023-04-02T13:20:34.515Z,100.00
2023-04-02T13:23:30.872Z,100.00
2023-04-02T13:26:11.583Z,100.00
2023-04-02T13:28:59.621Z,100.00
2023-04-02T13:31:32.249Z,100.00
2023-04-02T13:34:01.208Z,100.00
2023-04-02T13:36:33.284Z,100.00
2023-04-02T13:39:00.502Z,100.00
2023-04-02T13:41:32.556Z,100.00
2023-04-02T13:44:01.582Z,100.00
2023-04-02T13:46:29.990Z,100.00
2023-04-02T13:49:02.342Z,100.00
2023-04-02T13:51:35.224Z,100.00
2023-04-02T13:54:06.507Z,100.00
2023-04-02T13:56:33.726Z,100.00
2023-04-02T13:59:06.914Z,100.00
2023-04-02T14:01:34.547Z,100.00
2023-04-02T14:04:02.193Z,100.00
2023-04-02T14:06:46.957Z,100.00
2023-04-02T14:09:27.920Z,100.00
2023-04-02T14:12:00.274Z,100.00
2023-04-02T14:14:48.051Z,100.00
2023-04-02T14:17:21.479Z,100.00
2023-04-02T14:20:05.948Z,100.00
2023-04-02T14:22:48.914Z,100.00
2023-04-02T14:25:21.718Z,100.00
2023-04-02T14:27:59.969Z,100.00
2023-04-02T14:30:31.747Z,100.00
2023-04-02T14:33:09.968Z,100.00
2023-04-02T14:35:37.595Z,100.00
2023-04-02T14:38:16.002Z,100.00
2023-04-02T14:40:47.253Z,100.00
2023-04-02T14:43:22.963Z,100.00
2023-04-02T14:46:02.044Z,100.00
2023-04-02T14:48:42.805Z,100.00
2023-04-02T14:51:19.965Z,100.00
2023-04-02T14:53:50.357Z,100.00
2023-04-02T14:56:25.929Z,93.70
2023-04-02T14:58:57.142Z,100.00
2023-04-02T15:01:33.974Z,98.03
2023-04-02T15:04:10.235Z,100.00
2023-04-02T15:06:38.419Z,100.00
2023-04-02T15:09:13.976Z,93.96
2023-04-02T15:11:50.928Z,89.75
2023-04-02T15:14:20.866Z,87.16
2023-04-02T15:16:48.104Z,74.29
2023-04-02T15:19:23.003Z,86.71
2023-04-02T15:22:08.084Z,79.77
2023-04-02T15:24:49.911Z,65.82
2023-04-02T15:27:34.075Z,75.93
2023-04-02T15:30:12.959Z,84.60
2023-04-02T15:32:40.589Z,55.21
2023-04-02T15:35:25.110Z,83.77
2023-04-02T15:37:57.314Z,88.30
2023-04-02T15:40:39.944Z,69.88
2023-04-02T15:43:20.923Z,67.15
2023-04-02T15:45:57.045Z,90.57
2023-04-02T15:48:43.979Z,96.99
2023-04-02T15:51:22.004Z,92.41
2023-04-02T15:53:54.994Z,99.39
2023-04-02T15:56:40.978Z,100.00
2023-04-02T15:59:32.950Z,100.00
2023-04-02T16:02:18.212Z,100.00
2023-04-02T16:04:49.632Z,100.00
2023-04-02T16:07:30.953Z,100.00
2023-04-02T16:10:08.982Z,100.00
2023-04-02T16:12:44.052Z,100.00
2023-04-02T16:15:20.982Z,100.00
2023-04-02T16:17:53.111Z,100.00
2023-04-02T16:20:29.946Z,100.00
2023-04-02T16:23:07.110Z,100.00
2023-04-02T16:25:45.135Z,100.00
2023-04-02T16:28:18.501Z,100.00
2023-04-02T16:30:54.991Z,100.00
2023-04-02T16:33:37.073Z,100.00
2023-04-02T16:36:23.082Z,100.00
2023-04-02T16:38:56.375Z,100.00
2023-04-02T16:41:35.022Z,100.00
2023-04-02T16:44:06.157Z,100.00
2023-04-02T16:46:43.012Z,100.00
2023-04-02T16:49:24.176Z,100.00
2023-04-02T16:51:58.507Z,100.00
2023-04-02T16:54:36.937Z,100.00
2023-04-02T16:57:11.440Z,100.00
2023-04-02T16:59:51.023Z,100.00
2023-04-02T17:02:24.214Z,100.00
2023-04-02T17:05:04.955Z,100.00
2023-04-02T17:07:46.965Z,100.00
2023-04-02T17:10:23.086Z,100.00
2023-04-02T17:13:02.958Z,100.00
2023-04-02T17:15:33.345Z,100.00
2023-04-02T17:18:07.029Z,100.00
2023-04-02T17:20:34.540Z,100.00
2023-04-02T17:23:09.961Z,100.00
2023-04-02T17:25:39.229Z,100.00
2023-04-02T17:28:16.068Z,100.00
2023-04-02T17:30:51.958Z,100.00
2023-04-02T17:33:19.239Z,100.00
2023-04-02T17:36:02.226Z,100.00
2023-04-02T17:38:37.201Z,100.00
2023-04-02T17:41:13.952Z,100.00
2023-04-02T17:43:44.703Z,100.00
2023-04-02T17:46:24.193Z,100.00
2023-04-02T17:48:59.989Z,100.00
2023-04-02T17:51:40.177Z,100.00
2023-04-02T17:54:18.587Z,100.00
2023-04-02T17:57:04.007Z,100.00
2023-04-02T17:59:40.197Z,100.00
2023-04-02T18:02:26.104Z,100.00
2023-04-02T18:04:57.230Z,100.00
2023-04-02T18:07:35.018Z,100.00
2023-04-02T18:10:09.131Z,100.00
2023-04-02T18:12:53.036Z,100.00
2023-04-02T18:15:49.042Z,100.00
2023-04-02T18:18:29.039Z,100.00
2023-04-02T18:21:07.956Z,100.00
2023-04-02T18:23:39.982Z,100.00
2023-04-02T18:26:18.941Z,100.00
2023-04-02T18:28:49.861Z,100.00
2023-04-02T18:31:30.100Z,100.00
2023-04-02T18:34:27.968Z,100.00
2023-04-02T18:37:08.056Z,100.00
2023-04-02T18:39:46.991Z,100.00
2023-04-02T18:42:26.076Z,100.00
2023-04-02T18:45:04.093Z,100.00
2023-04-02T18:47:41.099Z,100.00
2023-04-02T18:50:14.065Z,100.00
2023-04-02T18:52:48.009Z,100.00
2023-04-02T18:55:18.069Z,100.00
2023-04-02T18:57:55.059Z,100.00
2023-04-02T19:00:25.545Z,100.00
2023-04-02T19:03:04.121Z,100.00
2023-04-02T19:05:36.432Z,100.00
2023-04-02T19:08:15.018Z,100.00
2023-04-02T19:10:49.961Z,100.00
2023-04-02T19:13:25.980Z,100.00
2023-04-02T19:16:06.069Z,100.00
2023-04-02T19:18:39.329Z,100.00
2023-04-02T19:21:20.037Z,100.00
2023-04-02T19:23:55.846Z,100.00
2023-04-02T19:26:35.000Z,100.00
2023-04-02T19:29:09.176Z,100.00
2023-04-02T19:31:51.065Z,100.00
2023-04-02T19:34:22.048Z,100.00
2023-04-02T19:36:58.044Z,100.00
2023-04-02T19:39:59.033Z,100.00
2023-04-02T19:42:40.064Z,100.00
2023-04-02T19:45:24.989Z,100.00
2023-04-02T19:47:59.186Z,100.00
2023-04-02T19:50:26.630Z,100.00
2023-04-02T19:53:00.009Z,100.00
2023-04-02T19:55:27.249Z,100.00
2023-04-02T19:58:08.991Z,100.00
2023-04-02T20:00:53.076Z,100.00
2023-04-02T20:03:20.323Z,100.00
2023-04-02T20:05:53.059Z,100.00
2023-04-02T20:08:20.487Z,100.00
2023-04-02T20:10:54.005Z,100.00
2023-04-02T20:13:21.179Z,100.00
2023-04-02T20:15:56.074Z,100.00
2023-04-02T20:18:23.291Z,100.00
2023-04-02T20:20:57.049Z,100.00
2023-04-02T20:23:24.422Z,100.00
2023-04-02T20:26:01.021Z,100.00
2023-04-02T20:28:34.982Z,100.00
2023-04-02T20:31:08.047Z,100.00
2023-04-02T20:33:42.149Z,100.00
2023-04-02T20:36:10.349Z,100.00
2023-04-02T20:38:43.985Z,100.00
2023-04-02T20:41:11.426Z,100.00
2023-04-02T20:43:44.993Z,100.00
2023-04-02T20:46:13.765Z,100.00
2023-04-02T20:48:48.043Z,100.00
2023-04-02T20:51:29.054Z,100.00
2023-04-02T20:53:56.387Z,100.00
2023-04-02T20:56:30.028Z,100.00
2023-04-02T20:59:03.997Z,100.00
2023-04-02T21:01:32.715Z,100.00
2023-04-02T21:04:13.091Z,100.00
2023-04-02T21:06:40.688Z,100.00
2023-04-02T21:09:15.053Z,100.00
2023-04-02T21:11:49.014Z,100.00
2023-04-02T21:14:15.537Z,100.00
2023-04-02T21:16:51.071Z,100.00
2023-04-02T21:19:18.405Z,100.00
2023-04-02T21:21:52.097Z,100.00
2023-04-02T21:24:26.094Z,100.00
2023-04-02T21:26:53.455Z,100.00
2023-04-02T21:29:26.990Z,100.00
2023-04-02T21:32:05.697Z,100.00
2023-04-02T21:34:38.492Z,100.00
2023-04-02T21:37:12.036Z,100.00
2023-04-02T21:57:49.052Z,100.00
2023-04-02T22:00:16.595Z,100.00
2023-04-02T22:09:53.015Z,100.00
2023-04-02T22:12:20.290Z,100.00
2023-04-02T22:14:54.983Z,100.00
2023-04-02T22:17:22.244Z,100.00
2023-04-02T22:19:56.097Z,100.00
2023-04-02T22:22:30.027Z,100.00
2023-04-02T22:24:57.198Z,100.00
2023-04-02T22:27:31.092Z,100.00
2023-04-02T22:29:59.681Z,100.00
2023-04-02T22:32:34.080Z,100.00
2023-04-02T22:35:01.365Z,100.00
2023-04-02T22:37:35.055Z,100.00
2023-04-02T22:40:02.308Z,100.00
2023-04-02T22:42:36.055Z,100.00
2023-04-02T22:45:05.099Z,100.00
2023-04-02T22:47:39.029Z,100.00
2023-04-02T22:50:06.812Z,100.00
2023-04-02T22:52:41.011Z,100.00
2023-04-02T22:55:08.898Z,100.00
2023-04-02T22:57:43.022Z,100.00
2023-04-02T23:00:13.424Z,100.00
2023-04-02T23:02:46.120Z,100.00
2023-04-02T23:05:13.456Z,100.00
2023-04-02T23:07:47.196Z,100.00
2023-04-02T23:10:14.410Z,100.00
2023-04-02T23:12:48.078Z,100.00
2023-04-02T23:15:16.764Z,100.00
2023-04-02T23:17:50.096Z,100.00
2023-04-02T23:20:24.030Z,100.00
2023-04-02T23:22:58.072Z,100.00
2023-04-02T23:25:25.343Z,100.00
2023-04-02T23:27:59.025Z,100.00
2023-04-02T23:30:27.604Z,100.00
2023-04-02T23:33:02.714Z,100.00
2023-04-02T23:35:37.125Z,100.00
2023-04-02T23:38:04.361Z,100.00
2023-04-02T23:40:37.413Z,100.00
2023-04-02T23:43:04.980Z,100.00
2023-04-02T23:45:40.014Z,100.00
2023-04-02T23:48:07.788Z,100.00
2023-04-02T23:50:41.032Z,100.00
2023-04-02T23:53:08.280Z,100.00
2023-04-02T23:55:42.052Z,100.00
2023-04-02T23:58:09.279Z,100.00
